sensor_id;sensor_type;location;lat;lon;timestamp;P1;durP1;ratioP1;P2;durP2;ratioP2
13580;SDS011;6861;46.170;7.222;2023-05-16T00:01:59;2.30;;;2.10;;
13580;SDS011;6861;46.170;7.222;2023-05-16T00:04:28;2.30;;;2.03;;
13580;SDS011;6861;46.170;7.222;2023-05-16T00:06:58;3.22;;;2.10;;
13580;SDS011;6861;46.170;7.222;2023-05-16T00:09:28;2.45;;;2.22;;
13580;SDS011;6861;46.170;7.222;2023-05-16T00:11:56;2.58;;;2.35;;
13580;SDS011;6861;46.170;7.222;2023-05-16T00:14:25;4.72;;;2.22;;
13580;SDS011;6861;46.170;7.222;2023-05-16T00:16:53;2.50;;;2.30;;
13580;SDS011;6861;46.170;7.222;2023-05-16T00:19:24;2.65;;;2.10;;
13580;SDS011;6861;46.170;7.222;2023-05-16T00:21:53;2.40;;;2.20;;
13580;SDS011;6861;46.170;7.222;2023-05-16T00:24:21;2.47;;;2.08;;
13580;SDS011;6861;46.170;7.222;2023-05-16T00:26:51;3.25;;;2.53;;
13580;SDS011;6861;46.170;7.222;2023-05-16T00:29:19;3.10;;;2.25;;
13580;SDS011;6861;46.170;7.222;2023-05-16T00:31:49;2.20;;;1.92;;
13580;SDS011;6861;46.170;7.222;2023-05-16T00:34:18;2.40;;;2.17;;
13580;SDS011;6861;46.170;7.222;2023-05-16T00:36:46;2.30;;;2.10;;
13580;SDS011;6861;46.170;7.222;2023-05-16T00:39:15;2.40;;;2.20;;
13580;SDS011;6861;46.170;7.222;2023-05-16T00:41:43;4.90;;;2.30;;
13580;SDS011;6861;46.170;7.222;2023-05-16T00:44:14;2.40;;;2.20;;
13580;SDS011;6861;46.170;7.222;2023-05-16T00:46:42;2.42;;;2.22;;
13580;SDS011;6861;46.170;7.222;2023-05-16T00:49:10;4.47;;;2.75;;
13580;SDS011;6861;46.170;7.222;2023-05-16T00:51:38;2.30;;;1.90;;
13580;SDS011;6861;46.170;7.222;2023-05-16T00:54:07;3.90;;;2.60;;
13580;SDS011;6861;46.170;7.222;2023-05-16T00:56:35;2.28;;;1.92;;
13580;SDS011;6861;46.170;7.222;2023-05-16T00:59:04;2.65;;;1.83;;
13580;SDS011;6861;46.170;7.222;2023-05-16T01:01:33;3.10;;;2.10;;
13580;SDS011;6861;46.170;7.222;2023-05-16T01:04:03;2.10;;;1.90;;
13580;SDS011;6861;46.170;7.222;2023-05-16T01:06:32;3.92;;;2.20;;
13580;SDS011;6861;46.170;7.222;2023-05-16T01:09:01;2.13;;;1.92;;
13580;SDS011;6861;46.170;7.222;2023-05-16T01:11:31;2.20;;;2.03;;
13580;SDS011;6861;46.170;7.222;2023-05-16T01:14:08;3.03;;;2.25;;
13580;SDS011;6861;46.170;7.222;2023-05-16T01:16:46;2.60;;;2.00;;
13580;SDS011;6861;46.170;7.222;2023-05-16T01:19:20;2.58;;;1.83;;
13580;SDS011;6861;46.170;7.222;2023-05-16T01:22:10;2.30;;;2.10;;
13580;SDS011;6861;46.170;7.222;2023-05-16T01:24:43;2.05;;;1.88;;
13580;SDS011;6861;46.170;7.222;2023-05-16T01:27:25;3.38;;;2.05;;
13580;SDS011;6861;46.170;7.222;2023-05-16T01:29:55;2.78;;;2.08;;
13580;SDS011;6861;46.170;7.222;2023-05-16T01:32:24;2.28;;;2.08;;
13580;SDS011;6861;46.170;7.222;2023-05-16T01:34:52;2.40;;;2.03;;
13580;SDS011;6861;46.170;7.222;2023-05-16T01:37:23;2.97;;;2.10;;
13580;SDS011;6861;46.170;7.222;2023-05-16T01:40:02;2.50;;;2.30;;
13580;SDS011;6861;46.170;7.222;2023-05-16T01:42:38;3.13;;;2.28;;
13580;SDS011;6861;46.170;7.222;2023-05-16T01:45:11;3.25;;;2.33;;
13580;SDS011;6861;46.170;7.222;2023-05-16T01:47:46;3.72;;;2.35;;
13580;SDS011;6861;46.170;7.222;2023-05-16T01:50:21;2.50;;;2.30;;
13580;SDS011;6861;46.170;7.222;2023-05-16T01:52:52;2.88;;;2.58;;
13580;SDS011;6861;46.170;7.222;2023-05-16T01:55:28;2.50;;;2.30;;
13580;SDS011;6861;46.170;7.222;2023-05-16T01:58:04;2.17;;;1.98;;
13580;SDS011;6861;46.170;7.222;2023-05-16T02:00:35;2.58;;;2.38;;
13580;SDS011;6861;46.170;7.222;2023-05-16T02:03:03;3.30;;;2.20;;
13580;SDS011;6861;46.170;7.222;2023-05-16T02:05:32;3.00;;;2.58;;
13580;SDS011;6861;46.170;7.222;2023-05-16T02:08:01;3.42;;;2.60;;
13580;SDS011;6861;46.170;7.222;2023-05-16T02:10:29;3.13;;;2.50;;
13580;SDS011;6861;46.170;7.222;2023-05-16T02:12:58;2.85;;;2.58;;
13580;SDS011;6861;46.170;7.222;2023-05-16T02:15:27;2.80;;;2.45;;
13580;SDS011;6861;46.170;7.222;2023-05-16T02:17:56;3.03;;;2.60;;
13580;SDS011;6861;46.170;7.222;2023-05-16T02:20:24;3.40;;;2.50;;
13580;SDS011;6861;46.170;7.222;2023-05-16T02:22:52;2.58;;;2.38;;
13580;SDS011;6861;46.170;7.222;2023-05-16T02:25:21;3.78;;;2.35;;
13580;SDS011;6861;46.170;7.222;2023-05-16T02:27:49;2.65;;;2.20;;
13580;SDS011;6861;46.170;7.222;2023-05-16T02:30:18;2.70;;;2.50;;
13580;SDS011;6861;46.170;7.222;2023-05-16T02:32:47;2.70;;;2.50;;
13580;SDS011;6861;46.170;7.222;2023-05-16T02:35:15;4.13;;;2.45;;
13580;SDS011;6861;46.170;7.222;2023-05-16T02:37:44;2.78;;;2.50;;
13580;SDS011;6861;46.170;7.222;2023-05-16T02:40:12;2.80;;;2.30;;
13580;SDS011;6861;46.170;7.222;2023-05-16T02:42:41;3.35;;;2.67;;
13580;SDS011;6861;46.170;7.222;2023-05-16T02:45:09;3.05;;;2.40;;
13580;SDS011;6861;46.170;7.222;2023-05-16T02:47:37;2.80;;;2.50;;
13580;SDS011;6861;46.170;7.222;2023-05-16T02:50:08;2.85;;;2.30;;
13580;SDS011;6861;46.170;7.222;2023-05-16T02:52:36;2.78;;;2.45;;
13580;SDS011;6861;46.170;7.222;2023-05-16T02:55:05;2.53;;;2.33;;
13580;SDS011;6861;46.170;7.222;2023-05-16T02:57:36;4.03;;;2.45;;
13580;SDS011;6861;46.170;7.222;2023-05-16T03:00:05;4.55;;;2.40;;
13580;SDS011;6861;46.170;7.222;2023-05-16T03:02:37;2.45;;;2.25;;
13580;SDS011;6861;46.170;7.222;2023-05-16T03:05:05;2.67;;;2.40;;
13580;SDS011;6861;46.170;7.222;2023-05-16T03:07:35;3.22;;;2.40;;
13580;SDS011;6861;46.170;7.222;2023-05-16T03:10:04;2.92;;;2.72;;
13580;SDS011;6861;46.170;7.222;2023-05-16T03:12:33;2.83;;;2.35;;
13580;SDS011;6861;46.170;7.222;2023-05-16T03:15:01;3.13;;;2.83;;
13580;SDS011;6861;46.170;7.222;2023-05-16T03:17:30;2.50;;;2.22;;
13580;SDS011;6861;46.170;7.222;2023-05-16T03:19:58;2.60;;;2.40;;
13580;SDS011;6861;46.170;7.222;2023-05-16T03:22:26;2.63;;;2.42;;
13580;SDS011;6861;46.170;7.222;2023-05-16T03:24:56;3.75;;;2.65;;
13580;SDS011;6861;46.170;7.222;2023-05-16T03:27:25;2.60;;;2.40;;
13580;SDS011;6861;46.170;7.222;2023-05-16T03:29:53;3.80;;;2.80;;
13580;SDS011;6861;46.170;7.222;2023-05-16T03:32:21;2.53;;;2.33;;
13580;SDS011;6861;46.170;7.222;2023-05-16T03:34:50;6.05;;;2.97;;
13580;SDS011;6861;46.170;7.222;2023-05-16T03:37:18;3.85;;;2.67;;
13580;SDS011;6861;46.170;7.222;2023-05-16T03:39:46;3.60;;;2.80;;
13580;SDS011;6861;46.170;7.222;2023-05-16T03:42:16;3.15;;;2.60;;
13580;SDS011;6861;46.170;7.222;2023-05-16T03:44:44;2.50;;;2.30;;
13580;SDS011;6861;46.170;7.222;2023-05-16T03:47:12;3.45;;;2.60;;
13580;SDS011;6861;46.170;7.222;2023-05-16T03:49:41;3.50;;;2.65;;
13580;SDS011;6861;46.170;7.222;2023-05-16T03:52:09;4.03;;;2.97;;
13580;SDS011;6861;46.170;7.222;2023-05-16T03:54:37;3.53;;;2.80;;
13580;SDS011;6861;46.170;7.222;2023-05-16T03:57:05;3.38;;;2.35;;
13580;SDS011;6861;46.170;7.222;2023-05-16T03:59:35;2.67;;;2.40;;
13580;SDS011;6861;46.170;7.222;2023-05-16T04:02:04;2.63;;;2.42;;
13580;SDS011;6861;46.170;7.222;2023-05-16T04:04:33;3.15;;;2.85;;
13580;SDS011;6861;46.170;7.222;2023-05-16T04:07:01;3.00;;;2.55;;
13580;SDS011;6861;46.170;7.222;2023-05-16T04:09:30;3.05;;;2.60;;
13580;SDS011;6861;46.170;7.222;2023-05-16T04:11:58;3.05;;;2.80;;
13580;SDS011;6861;46.170;7.222;2023-05-16T04:14:27;3.58;;;3.28;;
13580;SDS011;6861;46.170;7.222;2023-05-16T04:16:56;2.90;;;2.65;;
13580;SDS011;6861;46.170;7.222;2023-05-16T04:19:25;3.67;;;2.50;;
13580;SDS011;6861;46.170;7.222;2023-05-16T04:21:53;4.63;;;2.70;;
13580;SDS011;6861;46.170;7.222;2023-05-16T04:24:21;3.53;;;2.90;;
13580;SDS011;6861;46.170;7.222;2023-05-16T04:26:52;2.92;;;2.72;;
13580;SDS011;6861;46.170;7.222;2023-05-16T04:29:20;2.78;;;2.58;;
13580;SDS011;6861;46.170;7.222;2023-05-16T04:31:49;4.18;;;2.80;;
13580;SDS011;6861;46.170;7.222;2023-05-16T04:34:18;3.55;;;3.08;;
13580;SDS011;6861;46.170;7.222;2023-05-16T04:36:48;3.97;;;2.90;;
13580;SDS011;6861;46.170;7.222;2023-05-16T04:39:16;4.00;;;3.03;;
13580;SDS011;6861;46.170;7.222;2023-05-16T04:41:45;3.10;;;2.80;;
13580;SDS011;6861;46.170;7.222;2023-05-16T04:44:13;3.58;;;2.65;;
13580;SDS011;6861;46.170;7.222;2023-05-16T04:46:41;3.38;;;2.90;;
13580;SDS011;6861;46.170;7.222;2023-05-16T04:49:09;2.95;;;2.65;;
13580;SDS011;6861;46.170;7.222;2023-05-16T04:51:39;3.08;;;2.50;;
13580;SDS011;6861;46.170;7.222;2023-05-16T04:54:07;3.58;;;2.70;;
13580;SDS011;6861;46.170;7.222;2023-05-16T04:56:36;3.58;;;2.50;;
13580;SDS011;6861;46.170;7.222;2023-05-16T04:59:04;5.50;;;3.13;;
13580;SDS011;6861;46.170;7.222;2023-05-16T05:01:32;4.82;;;2.83;;
13580;SDS011;6861;46.170;7.222;2023-05-16T05:04:01;3.92;;;2.70;;
13580;SDS011;6861;46.170;7.222;2023-05-16T05:06:29;5.68;;;3.35;;
13580;SDS011;6861;46.170;7.222;2023-05-16T05:08:59;4.15;;;3.00;;
13580;SDS011;6861;46.170;7.222;2023-05-16T05:11:27;8.68;;;3.42;;
13580;SDS011;6861;46.170;7.222;2023-05-16T05:13:55;5.15;;;2.90;;
13580;SDS011;6861;46.170;7.222;2023-05-16T05:16:23;7.97;;;2.97;;
13580;SDS011;6861;46.170;7.222;2023-05-16T05:18:52;5.25;;;2.95;;
13580;SDS011;6861;46.170;7.222;2023-05-16T05:21:20;7.85;;;3.35;;
13580;SDS011;6861;46.170;7.222;2023-05-16T05:23:50;5.25;;;2.65;;
13580;SDS011;6861;46.170;7.222;2023-05-16T05:26:20;2.95;;;2.60;;
13580;SDS011;6861;46.170;7.222;2023-05-16T05:28:48;3.83;;;2.97;;
13580;SDS011;6861;46.170;7.222;2023-05-16T05:31:30;3.30;;;2.53;;
13580;SDS011;6861;46.170;7.222;2023-05-16T05:34:00;3.08;;;2.70;;
13580;SDS011;6861;46.170;7.222;2023-05-16T05:36:29;3.22;;;2.67;;
13580;SDS011;6861;46.170;7.222;2023-05-16T05:38:57;2.67;;;2.47;;
13580;SDS011;6861;46.170;7.222;2023-05-16T05:41:27;2.97;;;2.40;;
13580;SDS011;6861;46.170;7.222;2023-05-16T05:43:55;4.13;;;2.47;;
13580;SDS011;6861;46.170;7.222;2023-05-16T05:46:23;3.67;;;2.47;;
13580;SDS011;6861;46.170;7.222;2023-05-16T05:48:52;4.25;;;2.58;;
13580;SDS011;6861;46.170;7.222;2023-05-16T05:51:20;2.67;;;2.47;;
13580;SDS011;6861;46.170;7.222;2023-05-16T05:53:48;4.38;;;2.47;;
13580;SDS011;6861;46.170;7.222;2023-05-16T05:56:16;2.55;;;2.35;;
13580;SDS011;6861;46.170;7.222;2023-05-16T05:58:46;3.03;;;2.80;;
13580;SDS011;6861;46.170;7.222;2023-05-16T06:01:15;3.25;;;2.50;;
13580;SDS011;6861;46.170;7.222;2023-05-16T06:03:43;3.35;;;2.70;;
13580;SDS011;6861;46.170;7.222;2023-05-16T06:06:11;3.10;;;2.70;;
13580;SDS011;6861;46.170;7.222;2023-05-16T06:08:41;3.40;;;2.45;;
13580;SDS011;6861;46.170;7.222;2023-05-16T06:11:09;3.53;;;2.53;;
13580;SDS011;6861;46.170;7.222;2023-05-16T06:13:37;4.57;;;2.90;;
13580;SDS011;6861;46.170;7.222;2023-05-16T06:16:06;3.28;;;2.50;;
13580;SDS011;6861;46.170;7.222;2023-05-16T06:18:35;2.50;;;2.30;;
13580;SDS011;6861;46.170;7.222;2023-05-16T06:21:03;2.70;;;2.50;;
13580;SDS011;6861;46.170;7.222;2023-05-16T06:23:32;2.53;;;2.33;;
13580;SDS011;6861;46.170;7.222;2023-05-16T06:26:01;2.70;;;2.50;;
13580;SDS011;6861;46.170;7.222;2023-05-16T06:28:29;2.58;;;2.25;;
13580;SDS011;6861;46.170;7.222;2023-05-16T06:30:57;2.80;;;2.50;;
13580;SDS011;6861;46.170;7.222;2023-05-16T06:33:27;4.72;;;2.30;;
13580;SDS011;6861;46.170;7.222;2023-05-16T06:35:55;4.80;;;1.90;;
13580;SDS011;6861;46.170;7.222;2023-05-16T06:38:24;2.53;;;1.90;;
13580;SDS011;6861;46.170;7.222;2023-05-16T06:40:52;3.95;;;1.95;;
13580;SDS011;6861;46.170;7.222;2023-05-16T06:43:20;4.15;;;2.10;;
13580;SDS011;6861;46.170;7.222;2023-05-16T06:45:48;2.90;;;2.00;;
13580;SDS011;6861;46.170;7.222;2023-05-16T06:48:17;4.00;;;2.10;;
13580;SDS011;6861;46.170;7.222;2023-05-16T06:50:47;2.38;;;2.17;;
13580;SDS011;6861;46.170;7.222;2023-05-16T06:53:16;2.05;;;1.80;;
13580;SDS011;6861;46.170;7.222;2023-05-16T06:55:45;2.30;;;1.98;;
13580;SDS011;6861;46.170;7.222;2023-05-16T06:58:13;3.67;;;2.00;;
13580;SDS011;6861;46.170;7.222;2023-05-16T07:00:42;3.60;;;2.13;;
13580;SDS011;6861;46.170;7.222;2023-05-16T07:03:10;2.05;;;1.85;;
13580;SDS011;6861;46.170;7.222;2023-05-16T07:05:40;3.35;;;1.95;;
13580;SDS011;6861;46.170;7.222;2023-05-16T07:08:09;2.35;;;1.80;;
13580;SDS011;6861;46.170;7.222;2023-05-16T07:10:38;2.63;;;2.08;;
13580;SDS011;6861;46.170;7.222;2023-05-16T07:13:06;4.35;;;1.90;;
13580;SDS011;6861;46.170;7.222;2023-05-16T07:15:35;2.22;;;2.03;;
13580;SDS011;6861;46.170;7.222;2023-05-16T07:18:03;1.92;;;1.60;;
13580;SDS011;6861;46.170;7.222;2023-05-16T07:20:31;2.00;;;1.83;;
13580;SDS011;6861;46.170;7.222;2023-05-16T07:22:59;3.13;;;1.50;;
13580;SDS011;6861;46.170;7.222;2023-05-16T07:25:29;3.63;;;1.83;;
13580;SDS011;6861;46.170;7.222;2023-05-16T07:27:57;2.17;;;1.90;;
13580;SDS011;6861;46.170;7.222;2023-05-16T07:30:26;2.00;;;1.65;;
13580;SDS011;6861;46.170;7.222;2023-05-16T07:32:55;2.90;;;1.75;;
13580;SDS011;6861;46.170;7.222;2023-05-16T07:35:23;2.10;;;1.90;;
13580;SDS011;6861;46.170;7.222;2023-05-16T07:37:52;2.85;;;1.63;;
13580;SDS011;6861;46.170;7.222;2023-05-16T07:40:20;3.78;;;1.92;;
13580;SDS011;6861;46.170;7.222;2023-05-16T07:42:52;2.35;;;2.00;;
13580;SDS011;6861;46.170;7.222;2023-05-16T07:45:20;2.45;;;2.10;;
13580;SDS011;6861;46.170;7.222;2023-05-16T07:47:49;3.25;;;1.88;;
13580;SDS011;6861;46.170;7.222;2023-05-16T07:50:17;2.15;;;1.98;;
13580;SDS011;6861;46.170;7.222;2023-05-16T07:52:45;4.63;;;2.35;;
13580;SDS011;6861;46.170;7.222;2023-05-16T07:55:13;3.38;;;2.10;;
13580;SDS011;6861;46.170;7.222;2023-05-16T07:57:41;2.30;;;2.10;;
13580;SDS011;6861;46.170;7.222;2023-05-16T08:00:12;4.90;;;1.90;;
13580;SDS011;6861;46.170;7.222;2023-05-16T08:02:41;4.13;;;1.90;;
13580;SDS011;6861;46.170;7.222;2023-05-16T08:05:10;2.20;;;2.00;;
13580;SDS011;6861;46.170;7.222;2023-05-16T08:07:38;2.35;;;2.00;;
13580;SDS011;6861;46.170;7.222;2023-05-16T08:10:07;2.97;;;2.00;;
13580;SDS011;6861;46.170;7.222;2023-05-16T08:12:38;2.28;;;1.92;;
13580;SDS011;6861;46.170;7.222;2023-05-16T08:15:07;2.67;;;2.13;;
13580;SDS011;6861;46.170;7.222;2023-05-16T08:17:38;3.80;;;2.35;;
13580;SDS011;6861;46.170;7.222;2023-05-16T08:20:06;3.25;;;2.10;;
13580;SDS011;6861;46.170;7.222;2023-05-16T08:22:35;6.10;;;2.25;;
13580;SDS011;6861;46.170;7.222;2023-05-16T08:25:04;2.85;;;1.92;;
13580;SDS011;6861;46.170;7.222;2023-05-16T08:27:33;3.70;;;2.60;;
13580;SDS011;6861;46.170;7.222;2023-05-16T08:30:01;3.63;;;2.50;;
13580;SDS011;6861;46.170;7.222;2023-05-16T08:32:30;2.95;;;2.20;;
13580;SDS011;6861;46.170;7.222;2023-05-16T08:35:00;2.10;;;1.90;;
13580;SDS011;6861;46.170;7.222;2023-05-16T08:37:28;4.10;;;2.30;;
13580;SDS011;6861;46.170;7.222;2023-05-16T08:39:57;2.33;;;2.05;;
13580;SDS011;6861;46.170;7.222;2023-05-16T08:42:25;2.40;;;1.73;;
13580;SDS011;6861;46.170;7.222;2023-05-16T08:44:54;2.05;;;1.70;;
13580;SDS011;6861;46.170;7.222;2023-05-16T08:47:22;2.33;;;1.60;;
13580;SDS011;6861;46.170;7.222;2023-05-16T08:49:53;1.85;;;1.60;;
13580;SDS011;6861;46.170;7.222;2023-05-16T08:52:26;2.75;;;1.50;;
13580;SDS011;6861;46.170;7.222;2023-05-16T08:54:55;2.38;;;1.50;;
13580;SDS011;6861;46.170;7.222;2023-05-16T08:57:36;2.28;;;1.50;;
13580;SDS011;6861;46.170;7.222;2023-05-16T09:00:06;3.65;;;1.50;;
13580;SDS011;6861;46.170;7.222;2023-05-16T09:02:38;3.15;;;1.50;;
13580;SDS011;6861;46.170;7.222;2023-05-16T09:05:07;2.95;;;1.50;;
13580;SDS011;6861;46.170;7.222;2023-05-16T09:07:39;2.40;;;1.42;;
13580;SDS011;6861;46.170;7.222;2023-05-16T09:10:08;1.50;;;1.40;;
13580;SDS011;6861;46.170;7.222;2023-05-16T09:12:38;4.57;;;1.60;;
13580;SDS011;6861;46.170;7.222;2023-05-16T09:15:07;2.15;;;1.60;;
13580;SDS011;6861;46.170;7.222;2023-05-16T09:17:38;5.38;;;1.55;;
13580;SDS011;6861;46.170;7.222;2023-05-16T09:20:08;4.90;;;1.83;;
13580;SDS011;6861;46.170;7.222;2023-05-16T09:22:40;2.85;;;1.40;;
13580;SDS011;6861;46.170;7.222;2023-05-16T09:25:18;4.82;;;1.60;;
13580;SDS011;6861;46.170;7.222;2023-05-16T09:27:56;2.22;;;1.70;;
13580;SDS011;6861;46.170;7.222;2023-05-16T09:30:26;2.58;;;1.75;;
13580;SDS011;6861;46.170;7.222;2023-05-16T09:32:55;3.33;;;2.22;;
13580;SDS011;6861;46.170;7.222;2023-05-16T09:35:24;2.97;;;1.83;;
13580;SDS011;6861;46.170;7.222;2023-05-16T09:37:57;3.08;;;1.70;;
13580;SDS011;6861;46.170;7.222;2023-05-16T09:40:25;3.13;;;1.77;;
13580;SDS011;6861;46.170;7.222;2023-05-16T09:43:01;5.00;;;2.22;;
13580;SDS011;6861;46.170;7.222;2023-05-16T09:45:30;3.20;;;1.70;;
13580;SDS011;6861;46.170;7.222;2023-05-16T09:48:00;2.72;;;1.80;;
13580;SDS011;6861;46.170;7.222;2023-05-16T09:50:31;2.10;;;1.90;;
13580;SDS011;6861;46.170;7.222;2023-05-16T09:53:01;4.95;;;2.00;;
13580;SDS011;6861;46.170;7.222;2023-05-16T09:55:30;2.63;;;1.85;;
13580;SDS011;6861;46.170;7.222;2023-05-16T09:57:58;3.15;;;2.00;;
13580;SDS011;6861;46.170;7.222;2023-05-16T10:00:28;4.20;;;2.13;;
13580;SDS011;6861;46.170;7.222;2023-05-16T10:02:58;2.88;;;2.20;;
13580;SDS011;6861;46.170;7.222;2023-05-16T10:05:31;4.57;;;2.20;;
13580;SDS011;6861;46.170;7.222;2023-05-16T10:08:02;3.33;;;2.30;;
13580;SDS011;6861;46.170;7.222;2023-05-16T10:10:32;2.28;;;2.05;;
13580;SDS011;6861;46.170;7.222;2023-05-16T10:13:05;4.57;;;2.03;;
13580;SDS011;6861;46.170;7.222;2023-05-16T10:15:35;3.75;;;1.90;;
13580;SDS011;6861;46.170;7.222;2023-05-16T10:18:04;2.55;;;1.88;;
13580;SDS011;6861;46.170;7.222;2023-05-16T10:20:37;2.33;;;1.85;;
13580;SDS011;6861;46.170;7.222;2023-05-16T10:23:09;1.90;;;1.80;;
13580;SDS011;6861;46.170;7.222;2023-05-16T10:25:42;2.42;;;2.03;;
13580;SDS011;6861;46.170;7.222;2023-05-16T10:28:12;3.42;;;2.10;;
13580;SDS011;6861;46.170;7.222;2023-05-16T10:30:40;2.90;;;1.90;;
13580;SDS011;6861;46.170;7.222;2023-05-16T10:33:10;2.03;;;1.60;;
13580;SDS011;6861;46.170;7.222;2023-05-16T10:35:40;1.70;;;1.50;;
13580;SDS011;6861;46.170;7.222;2023-05-16T10:38:11;1.60;;;1.50;;
13580;SDS011;6861;46.170;7.222;2023-05-16T10:40:41;4.63;;;1.35;;
13580;SDS011;6861;46.170;7.222;2023-05-16T10:43:10;1.90;;;1.65;;
13580;SDS011;6861;46.170;7.222;2023-05-16T10:45:53;2.97;;;1.40;;
13580;SDS011;6861;46.170;7.222;2023-05-16T10:48:29;2.60;;;1.50;;
13580;SDS011;6861;46.170;7.222;2023-05-16T10:50:58;1.75;;;1.50;;
13580;SDS011;6861;46.170;7.222;2023-05-16T10:53:30;3.58;;;1.50;;
13580;SDS011;6861;46.170;7.222;2023-05-16T10:56:09;1.75;;;1.60;;
13580;SDS011;6861;46.170;7.222;2023-05-16T10:58:39;2.67;;;1.50;;
13580;SDS011;6861;46.170;7.222;2023-05-16T11:01:15;8.43;;;1.20;;
13580;SDS011;6861;46.170;7.222;2023-05-16T11:04:00;5.47;;;1.23;;
13580;SDS011;6861;46.170;7.222;2023-05-16T11:06:30;3.05;;;1.40;;
13580;SDS011;6861;46.170;7.222;2023-05-16T11:09:16;3.65;;;1.25;;
13580;SDS011;6861;46.170;7.222;2023-05-16T11:11:52;1.23;;;1.00;;
13580;SDS011;6861;46.170;7.222;2023-05-16T11:14:23;4.50;;;1.50;;
13580;SDS011;6861;46.170;7.222;2023-05-16T11:16:54;3.45;;;1.20;;
13580;SDS011;6861;46.170;7.222;2023-05-16T11:19:28;4.90;;;1.20;;
13580;SDS011;6861;46.170;7.222;2023-05-16T11:22:05;3.15;;;1.50;;
13580;SDS011;6861;46.170;7.222;2023-05-16T11:24:38;6.07;;;1.30;;
13580;SDS011;6861;46.170;7.222;2023-05-16T11:27:23;2.15;;;1.20;;
13580;SDS011;6861;46.170;7.222;2023-05-16T11:29:54;1.20;;;1.10;;
13580;SDS011;6861;46.170;7.222;2023-05-16T11:32:28;1.23;;;1.10;;
13580;SDS011;6861;46.170;7.222;2023-05-16T11:34:58;1.10;;;1.00;;
13580;SDS011;6861;46.170;7.222;2023-05-16T11:37:26;2.03;;;1.10;;
13580;SDS011;6861;46.170;7.222;2023-05-16T11:39:58;3.08;;;1.10;;
13580;SDS011;6861;46.170;7.222;2023-05-16T11:42:28;13.30;;;1.30;;
13580;SDS011;6861;46.170;7.222;2023-05-16T11:45:03;3.45;;;0.93;;
13580;SDS011;6861;46.170;7.222;2023-05-16T11:47:35;1.80;;;1.08;;
13580;SDS011;6861;46.170;7.222;2023-05-16T11:50:05;1.35;;;1.00;;
13580;SDS011;6861;46.170;7.222;2023-05-16T11:52:35;0.90;;;0.90;;
13580;SDS011;6861;46.170;7.222;2023-05-16T11:55:08;1.88;;;1.10;;
13580;SDS011;6861;46.170;7.222;2023-05-16T11:57:42;1.00;;;0.90;;
13580;SDS011;6861;46.170;7.222;2023-05-16T12:00:12;3.53;;;1.40;;
13580;SDS011;6861;46.170;7.222;2023-05-16T12:02:42;3.58;;;1.25;;
13580;SDS011;6861;46.170;7.222;2023-05-16T12:05:11;8.25;;;1.20;;
13580;SDS011;6861;46.170;7.222;2023-05-16T12:07:41;6.35;;;1.60;;
13580;SDS011;6861;46.170;7.222;2023-05-16T12:10:12;2.63;;;1.20;;
13580;SDS011;6861;46.170;7.222;2023-05-16T12:12:43;19.77;;;2.45;;
13580;SDS011;6861;46.170;7.222;2023-05-16T12:15:12;5.10;;;1.10;;
13580;SDS011;6861;46.170;7.222;2023-05-16T12:17:41;3.53;;;1.02;;
13580;SDS011;6861;46.170;7.222;2023-05-16T12:20:10;2.58;;;1.20;;
13580;SDS011;6861;46.170;7.222;2023-05-16T12:22:42;1.05;;;0.80;;
13580;SDS011;6861;46.170;7.222;2023-05-16T12:25:20;1.55;;;0.82;;
13580;SDS011;6861;46.170;7.222;2023-05-16T12:27:51;2.88;;;1.00;;
13580;SDS011;6861;46.170;7.222;2023-05-16T12:30:20;4.57;;;1.20;;
13580;SDS011;6861;46.170;7.222;2023-05-16T12:32:56;1.10;;;1.00;;
13580;SDS011;6861;46.170;7.222;2023-05-16T12:35:28;1.25;;;1.15;;
13580;SDS011;6861;46.170;7.222;2023-05-16T12:37:58;1.92;;;1.00;;
13580;SDS011;6861;46.170;7.222;2023-05-16T12:40:28;1.20;;;0.98;;
13580;SDS011;6861;46.170;7.222;2023-05-16T12:42:57;1.55;;;1.23;;
13580;SDS011;6861;46.170;7.222;2023-05-16T12:45:25;8.23;;;1.40;;
13580;SDS011;6861;46.170;7.222;2023-05-16T12:47:54;1.45;;;1.35;;
13580;SDS011;6861;46.170;7.222;2023-05-16T12:50:25;3.92;;;1.60;;
13580;SDS011;6861;46.170;7.222;2023-05-16T12:52:57;2.33;;;1.17;;
13580;SDS011;6861;46.170;7.222;2023-05-16T12:55:30;2.33;;;1.35;;
13580;SDS011;6861;46.170;7.222;2023-05-16T12:57:58;1.38;;;1.10;;
13580;SDS011;6861;46.170;7.222;2023-05-16T13:00:28;4.32;;;1.10;;
13580;SDS011;6861;46.170;7.222;2023-05-16T13:02:57;2.38;;;0.90;;
13580;SDS011;6861;46.170;7.222;2023-05-16T13:05:25;2.35;;;1.10;;
13580;SDS011;6861;46.170;7.222;2023-05-16T13:07:53;1.15;;;0.95;;
13580;SDS011;6861;46.170;7.222;2023-05-16T13:10:22;1.25;;;0.98;;
13580;SDS011;6861;46.170;7.222;2023-05-16T13:12:53;1.02;;;0.93;;
13580;SDS011;6861;46.170;7.222;2023-05-16T13:15:23;2.55;;;0.98;;
13580;SDS011;6861;46.170;7.222;2023-05-16T13:17:53;3.53;;;0.90;;
13580;SDS011;6861;46.170;7.222;2023-05-16T13:20:21;2.05;;;1.10;;
13580;SDS011;6861;46.170;7.222;2023-05-16T13:22:50;1.45;;;1.20;;
13580;SDS011;6861;46.170;7.222;2023-05-16T13:25:18;1.20;;;0.90;;
13580;SDS011;6861;46.170;7.222;2023-05-16T13:27:46;2.60;;;1.02;;
13580;SDS011;6861;46.170;7.222;2023-05-16T13:30:16;1.10;;;1.00;;
13580;SDS011;6861;46.170;7.222;2023-05-16T13:32:44;1.63;;;1.02;;
13580;SDS011;6861;46.170;7.222;2023-05-16T13:35:14;1.92;;;1.10;;
13580;SDS011;6861;46.170;7.222;2023-05-16T13:37:42;2.00;;;1.10;;
13580;SDS011;6861;46.170;7.222;2023-05-16T13:40:10;1.17;;;1.00;;
13580;SDS011;6861;46.170;7.222;2023-05-16T13:42:39;0.95;;;0.90;;
13580;SDS011;6861;46.170;7.222;2023-05-16T13:45:07;1.20;;;1.00;;
13580;SDS011;6861;46.170;7.222;2023-05-16T13:47:37;2.22;;;1.00;;
13580;SDS011;6861;46.170;7.222;2023-05-16T13:50:06;1.00;;;0.90;;
13580;SDS011;6861;46.170;7.222;2023-05-16T13:52:37;1.83;;;1.00;;
13580;SDS011;6861;46.170;7.222;2023-05-16T13:55:06;2.40;;;1.60;;
13580;SDS011;6861;46.170;7.222;2023-05-16T13:57:35;1.60;;;1.45;;
13580;SDS011;6861;46.170;7.222;2023-05-16T14:00:04;1.17;;;1.08;;
13580;SDS011;6861;46.170;7.222;2023-05-16T14:02:42;1.30;;;1.20;;
13580;SDS011;6861;46.170;7.222;2023-05-16T14:05:10;3.63;;;1.13;;
13580;SDS011;6861;46.170;7.222;2023-05-16T14:07:38;1.92;;;1.15;;
13580;SDS011;6861;46.170;7.222;2023-05-16T14:10:07;3.40;;;1.20;;
13580;SDS011;6861;46.170;7.222;2023-05-16T14:12:36;1.40;;;1.30;;
13580;SDS011;6861;46.170;7.222;2023-05-16T14:15:06;2.00;;;1.33;;
13580;SDS011;6861;46.170;7.222;2023-05-16T14:17:35;1.35;;;1.25;;
13580;SDS011;6861;46.170;7.222;2023-05-16T14:20:05;1.50;;;1.27;;
13580;SDS011;6861;46.170;7.222;2023-05-16T14:22:37;1.92;;;1.40;;
13580;SDS011;6861;46.170;7.222;2023-05-16T14:25:05;1.65;;;1.45;;
13580;SDS011;6861;46.170;7.222;2023-05-16T14:27:34;1.30;;;1.20;;
13580;SDS011;6861;46.170;7.222;2023-05-16T14:30:02;1.45;;;1.30;;
13580;SDS011;6861;46.170;7.222;2023-05-16T14:32:31;1.80;;;1.10;;
13580;SDS011;6861;46.170;7.222;2023-05-16T14:35:00;2.30;;;1.35;;
13580;SDS011;6861;46.170;7.222;2023-05-16T14:37:32;2.22;;;1.17;;
13580;SDS011;6861;46.170;7.222;2023-05-16T14:40:00;1.58;;;1.20;;
13580;SDS011;6861;46.170;7.222;2023-05-16T14:42:30;1.35;;;1.20;;
13580;SDS011;6861;46.170;7.222;2023-05-16T14:44:59;1.58;;;1.40;;
13580;SDS011;6861;46.170;7.222;2023-05-16T14:47:27;1.98;;;1.05;;
13580;SDS011;6861;46.170;7.222;2023-05-16T14:49:56;1.40;;;1.20;;
13580;SDS011;6861;46.170;7.222;2023-05-16T14:52:26;1.55;;;1.10;;
13580;SDS011;6861;46.170;7.222;2023-05-16T14:54:56;2.58;;;1.08;;
13580;SDS011;6861;46.170;7.222;2023-05-16T14:57:24;2.22;;;1.05;;
13580;SDS011;6861;46.170;7.222;2023-05-16T14:59:52;2.28;;;1.05;;
13580;SDS011;6861;46.170;7.222;2023-05-16T15:02:20;5.00;;;1.25;;
13580;SDS011;6861;46.170;7.222;2023-05-16T15:04:49;6.88;;;2.00;;
13580;SDS011;6861;46.170;7.222;2023-05-16T15:07:17;1.30;;;1.20;;
13580;SDS011;6861;46.170;7.222;2023-05-16T15:09:46;3.88;;;1.20;;
13580;SDS011;6861;46.170;7.222;2023-05-16T15:12:15;4.15;;;1.13;;
13580;SDS011;6861;46.170;7.222;2023-05-16T15:14:44;1.40;;;1.30;;
13580;SDS011;6861;46.170;7.222;2023-05-16T15:17:12;2.20;;;1.20;;